createdAt,value
2023-05-05T00:02:04.225Z,15.91
2023-05-05T00:04:34.503Z,15.91
2023-05-05T00:07:07.310Z,15.88
2023-05-05T00:09:37.394Z,15.86
2023-05-05T00:12:08.681Z,15.85
2023-05-05T00:14:38.767Z,15.85
2023-05-05T00:17:24.067Z,15.86
2023-05-05T00:19:54.222Z,15.84
2023-05-05T00:22:27.311Z,15.79
2023-05-05T00:24:59.968Z,15.74
2023-05-05T00:27:30.134Z,15.68
2023-05-05T00:30:00.160Z,15.68
2023-05-05T00:32:30.355Z,15.66
2023-05-05T00:35:00.558Z,15.67
2023-05-05T00:37:33.366Z,15.66
2023-05-05T00:40:03.773Z,15.63
2023-05-05T00:42:42.691Z,15.63
2023-05-05T00:45:14.592Z,15.66
2023-05-05T00:47:48.128Z,15.69
2023-05-05T00:50:25.977Z,15.68
2023-05-05T00:53:01.786Z,15.67
2023-05-05T00:55:33.037Z,15.63
2023-05-05T00:58:04.824Z,15.62
2023-05-05T01:00:35.266Z,15.58
2023-05-05T01:03:05.484Z,15.52
2023-05-05T01:05:41.823Z,15.48
2023-05-05T01:08:29.810Z,15.43
2023-05-05T01:11:05.360Z,15.31
2023-05-05T01:13:46.282Z,15.23
2023-05-05T01:16:21.481Z,15.17
2023-05-05T01:19:01.177Z,15.16
2023-05-05T01:21:36.592Z,15.20
2023-05-05T01:24:42.079Z,15.17
2023-05-05T01:27:34.429Z,15.16
2023-05-05T01:30:13.486Z,15.15
2023-05-05T01:32:51.689Z,15.09
2023-05-05T01:35:25.648Z,15.07
2023-05-05T01:38:06.108Z,15.01
2023-05-05T01:40:42.153Z,14.95
2023-05-05T01:43:16.287Z,14.95
2023-05-05T01:45:49.609Z,14.94
2023-05-05T01:48:24.003Z,14.88
2023-05-05T01:50:56.274Z,14.81
2023-05-05T01:53:28.651Z,14.78
2023-05-05T01:56:00.720Z,14.77
2023-05-05T01:58:32.775Z,14.79
2023-05-05T02:01:04.585Z,14.73
2023-05-05T02:03:40.681Z,14.70
2023-05-05T02:06:13.220Z,14.68
2023-05-05T02:08:45.072Z,14.67
2023-05-05T02:11:15.903Z,14.64
2023-05-05T02:13:47.299Z,14.66
2023-05-05T02:16:20.561Z,14.64
2023-05-05T02:18:54.694Z,14.61
2023-05-05T02:21:24.956Z,14.62
2023-05-05T02:23:56.066Z,14.58
2023-05-05T02:26:27.614Z,14.59
2023-05-05T02:29:05.761Z,14.59
2023-05-05T02:31:41.347Z,14.56
2023-05-05T02:34:16.431Z,14.53
2023-05-05T02:36:49.419Z,14.45
2023-05-05T02:39:28.092Z,14.42
2023-05-05T02:42:00.342Z,14.38
2023-05-05T02:44:32.415Z,14.30
2023-05-05T02:47:02.452Z,14.23
2023-05-05T02:49:35.589Z,14.23
2023-05-05T02:52:06.171Z,14.26
2023-05-05T02:54:39.512Z,14.25
2023-05-05T02:57:21.574Z,14.22
2023-05-05T03:00:09.674Z,14.24
2023-05-05T03:02:48.022Z,14.21
2023-05-05T03:05:27.218Z,14.19
2023-05-05T03:08:05.058Z,14.21
2023-05-05T03:10:54.680Z,14.19
2023-05-05T03:13:29.354Z,14.17
2023-05-05T03:16:04.703Z,14.15
2023-05-05T03:18:35.577Z,14.16
2023-05-05T03:21:10.876Z,14.16
2023-05-05T03:23:44.124Z,14.15
2023-05-05T03:26:21.806Z,14.13
2023-05-05T03:28:51.903Z,14.13
2023-05-05T03:31:28.679Z,14.12
2023-05-05T03:34:02.134Z,14.12
2023-05-05T03:36:41.452Z,14.12
2023-05-05T03:39:14.752Z,14.13
2023-05-05T03:41:50.549Z,14.11
2023-05-05T03:44:23.006Z,14.09
2023-05-05T03:46:53.101Z,14.11
2023-05-05T03:49:23.368Z,14.08
2023-05-05T03:51:57.210Z,14.04
2023-05-05T03:54:27.408Z,14.00
2023-05-05T03:56:58.370Z,14.00
2023-05-05T03:59:29.300Z,14.01
2023-05-05T04:02:00.012Z,14.04
2023-05-05T04:04:30.208Z,14.03
2023-05-05T04:07:03.386Z,14.03
2023-05-05T04:09:33.466Z,14.04
2023-05-05T04:12:03.905Z,13.98
2023-05-05T04:14:36.303Z,13.94
2023-05-05T04:17:06.467Z,13.97
2023-05-05T04:19:37.408Z,13.98
2023-05-05T04:22:10.428Z,14.08
2023-05-05T04:24:41.061Z,14.06
2023-05-05T04:27:11.135Z,14.00
2023-05-05T04:29:41.476Z,14.03
2023-05-05T04:32:11.782Z,14.07
2023-05-05T04:34:41.861Z,14.15
2023-05-05T04:37:14.856Z,14.35
2023-05-05T04:39:45.191Z,14.59
2023-05-05T04:42:15.221Z,14.84
2023-05-05T04:44:45.332Z,15.03
2023-05-05T04:47:15.463Z,15.19
2023-05-05T04:49:46.222Z,15.29
2023-05-05T04:52:19.059Z,15.41
2023-05-05T04:54:50.762Z,15.55
2023-05-05T04:57:20.934Z,15.71
2023-05-05T04:59:51.247Z,15.71
2023-05-05T05:02:21.989Z,15.53
2023-05-05T05:04:58.857Z,15.38
2023-05-05T05:07:33.200Z,15.54
2023-05-05T05:10:11.226Z,15.45
2023-05-05T05:13:34.299Z,15.30
2023-05-05T05:16:04.712Z,15.29
2023-05-05T05:18:34.879Z,15.39
2023-05-05T05:21:04.963Z,15.56
2023-05-05T05:26:46.695Z,16.39
2023-05-05T05:29:16.890Z,16.68
2023-05-05T05:31:47.264Z,16.94
2023-05-05T05:34:17.644Z,17.14
2023-05-05T05:36:48.493Z,17.23
2023-05-05T05:39:21.957Z,17.39
2023-05-05T05:41:52.367Z,17.45
2023-05-05T05:44:23.711Z,17.44
2023-05-05T05:47:03.574Z,17.47
2023-05-05T05:49:36.675Z,17.70
2023-05-05T05:52:07.213Z,18.06
2023-05-05T05:54:40.037Z,18.28
2023-05-05T05:57:11.322Z,18.24
2023-05-05T05:59:44.780Z,18.33
2023-05-05T06:02:17.408Z,18.35
2023-05-05T06:04:48.981Z,18.54
2023-05-05T06:07:19.357Z,18.40
2023-05-05T06:09:56.556Z,18.03
2023-05-05T06:12:29.429Z,17.73
2023-05-05T06:14:59.605Z,17.59
2023-05-05T06:17:29.736Z,17.51
2023-05-05T06:20:00.121Z,17.64
2023-05-05T06:22:39.929Z,17.51
2023-05-05T06:25:16.053Z,17.38
2023-05-05T06:27:49.096Z,17.26
2023-05-05T06:30:19.578Z,17.20
2023-05-05T06:32:49.615Z,17.31
2023-05-05T06:35:19.904Z,17.61
2023-05-05T06:37:49.994Z,18.26
2023-05-05T06:40:22.777Z,18.90
2023-05-05T06:42:55.122Z,19.30
2023-05-05T06:45:31.327Z,19.66
2023-05-05T06:48:02.773Z,20.20
2023-05-05T06:50:33.010Z,20.42
2023-05-05T06:53:03.158Z,20.11
2023-05-05T06:55:36.632Z,19.67
2023-05-05T06:58:07.089Z,19.38
2023-05-05T07:00:37.199Z,19.03
2023-05-05T07:03:07.442Z,18.89
2023-05-05T07:05:37.667Z,18.98
2023-05-05T07:08:11.536Z,19.40
2023-05-05T07:10:45.992Z,19.89
2023-05-05T07:13:18.198Z,20.42
2023-05-05T07:15:49.118Z,20.76
2023-05-05T07:18:20.673Z,21.29
2023-05-05T07:20:52.031Z,21.63
2023-05-05T07:23:22.074Z,21.36
2023-05-05T07:25:54.796Z,21.01
2023-05-05T07:28:25.085Z,20.69
2023-05-05T07:30:57.460Z,20.71
2023-05-05T07:33:27.816Z,21.07
2023-05-05T07:35:58.046Z,21.42
2023-05-05T07:38:28.741Z,21.55
2023-05-05T07:41:01.592Z,21.64
2023-05-05T07:43:31.839Z,21.86
2023-05-05T07:46:01.936Z,22.05
2023-05-05T07:48:32.265Z,22.33
2023-05-05T07:51:02.434Z,22.49
2023-05-05T07:53:32.568Z,22.51
2023-05-05T07:56:05.370Z,22.39
2023-05-05T07:58:35.420Z,22.31
2023-05-05T08:01:06.655Z,22.31
2023-05-05T08:03:36.839Z,22.62
2023-05-05T08:06:11.529Z,23.14
2023-05-05T08:08:41.614Z,23.70
2023-05-05T08:11:14.316Z,24.25
2023-05-05T08:13:45.755Z,24.65
2023-05-05T08:16:16.284Z,24.59
2023-05-05T08:18:46.716Z,24.63
2023-05-05T08:21:16.912Z,25.06
2023-05-05T08:23:46.935Z,25.36
2023-05-05T08:26:19.760Z,25.51
2023-05-05T08:28:49.833Z,25.54
2023-05-05T08:31:20.152Z,25.72
2023-05-05T08:33:50.519Z,26.02
2023-05-05T08:36:20.649Z,26.25
2023-05-05T08:38:50.802Z,26.20
2023-05-05T08:41:23.507Z,26.15
2023-05-05T08:43:53.686Z,25.71
2023-05-05T08:46:24.585Z,25.96
2023-05-05T08:48:58.051Z,26.35
2023-05-05T08:51:45.616Z,26.87
2023-05-05T08:54:21.317Z,27.21
2023-05-05T08:56:55.379Z,27.43
2023-05-05T08:59:30.243Z,27.83
2023-05-05T09:02:01.512Z,28.19
2023-05-05T09:04:31.712Z,28.51
2023-05-05T09:07:01.943Z,28.97
2023-05-05T09:09:33.290Z,29.02
2023-05-05T09:12:06.105Z,28.90
2023-05-05T09:14:36.309Z,28.98
2023-05-05T09:17:06.778Z,29.00
2023-05-05T09:19:36.906Z,28.91
2023-05-05T09:22:06.964Z,28.87
2023-05-05T09:24:37.050Z,28.82
2023-05-05T09:27:24.684Z,28.78
2023-05-05T09:29:54.882Z,28.71
2023-05-05T09:32:27.171Z,28.70
2023-05-05T09:35:02.044Z,28.77
2023-05-05T09:37:32.994Z,28.73
2023-05-05T09:40:03.848Z,28.82
2023-05-05T09:42:37.990Z,28.76
2023-05-05T09:45:28.153Z,28.60
2023-05-05T09:48:00.102Z,28.78
2023-05-05T09:50:32.749Z,28.55
2023-05-05T09:53:04.910Z,28.60
2023-05-05T09:55:36.210Z,28.49
2023-05-05T09:58:33.883Z,28.27
2023-05-05T10:01:06.625Z,28.63
2023-05-05T10:03:36.752Z,28.67
2023-05-05T10:06:08.063Z,28.86
2023-05-05T10:09:03.808Z,29.11
2023-05-05T10:11:34.783Z,28.89
2023-05-05T10:14:09.469Z,29.32
2023-05-05T10:16:43.912Z,29.67
2023-05-05T10:19:17.452Z,29.83
2023-05-05T10:21:52.163Z,29.66
2023-05-05T10:24:31.859Z,29.82
2023-05-05T10:27:05.493Z,30.06
2023-05-05T10:29:46.078Z,30.01
2023-05-05T10:32:53.504Z,29.35
2023-05-05T10:35:23.818Z,28.92
2023-05-05T10:37:54.072Z,29.09
2023-05-05T10:40:25.677Z,29.47
2023-05-05T10:42:58.075Z,29.67
2023-05-05T10:45:30.874Z,29.88
2023-05-05T10:48:03.710Z,30.39
2023-05-05T10:50:39.348Z,31.03
2023-05-05T10:53:19.572Z,31.24
2023-05-05T10:55:57.169Z,31.09
2023-05-05T10:58:46.966Z,31.32
2023-05-05T11:01:35.695Z,31.49
2023-05-05T11:04:22.234Z,31.38
2023-05-05T11:07:24.381Z,31.50
2023-05-05T11:10:02.103Z,31.92
2023-05-05T11:12:38.645Z,32.07
2023-05-05T11:15:38.175Z,32.10
2023-05-05T11:18:30.730Z,32.45
2023-05-05T11:21:15.798Z,32.65
2023-05-05T11:23:50.359Z,32.88
2023-05-05T11:26:25.044Z,32.78
2023-05-05T11:29:05.468Z,32.81
2023-05-05T11:31:36.773Z,32.82
2023-05-05T11:34:47.530Z,32.49
2023-05-05T11:37:18.651Z,32.48
2023-05-05T11:40:06.492Z,32.70
2023-05-05T11:42:40.424Z,32.45
2023-05-05T11:45:28.315Z,31.18
2023-05-05T11:48:35.757Z,31.23
2023-05-05T11:51:13.912Z,31.34
2023-05-05T11:53:52.723Z,30.73
2023-05-05T11:56:29.036Z,30.23
2023-05-05T11:59:41.677Z,29.83
2023-05-05T12:02:11.990Z,29.34
2023-05-05T12:04:45.733Z,29.00
2023-05-05T12:07:22.465Z,28.56
2023-05-05T12:09:53.127Z,28.52
2023-05-05T12:12:25.666Z,29.17
2023-05-05T12:15:08.171Z,30.10
2023-05-05T12:17:49.654Z,30.73
2023-05-05T12:20:19.976Z,31.09
2023-05-05T12:22:52.967Z,32.12
2023-05-05T12:25:23.260Z,32.19
2023-05-05T12:27:56.070Z,31.17
2023-05-05T12:30:32.786Z,30.99
2023-05-05T12:33:22.350Z,31.76
2023-05-05T12:35:52.979Z,32.77
2023-05-05T12:38:30.164Z,33.67
2023-05-05T12:41:03.616Z,33.80
2023-05-05T12:43:38.827Z,33.35
2023-05-05T12:46:14.806Z,33.28
2023-05-05T12:49:00.610Z,33.10
2023-05-05T12:51:33.826Z,33.56
2023-05-05T12:54:11.401Z,34.12
2023-05-05T12:56:48.412Z,34.88
2023-05-05T12:59:33.017Z,35.07
2023-05-05T13:02:03.978Z,35.33
2023-05-05T13:04:34.526Z,35.29
2023-05-05T13:07:14.682Z,35.06
2023-05-05T13:09:47.614Z,34.98
2023-05-05T13:12:19.155Z,35.16
2023-05-05T13:14:50.228Z,35.29
2023-05-05T13:17:20.323Z,35.81
2023-05-05T13:19:51.149Z,36.12
2023-05-05T13:22:21.228Z,36.13
2023-05-05T13:24:54.093Z,36.28
2023-05-05T13:27:24.453Z,36.02
2023-05-05T13:29:54.593Z,35.50
2023-05-05T13:32:27.602Z,35.01
2023-05-05T13:34:58.192Z,34.01
2023-05-05T13:37:28.484Z,33.03
2023-05-05T13:40:03.318Z,31.75
2023-05-05T13:42:33.988Z,30.53
2023-05-05T13:45:05.748Z,29.12
2023-05-05T13:47:38.732Z,27.91
2023-05-05T13:50:13.559Z,27.04
2023-05-05T13:52:43.889Z,26.28
2023-05-05T13:55:20.644Z,25.55
2023-05-05T13:57:50.686Z,25.20
2023-05-05T14:00:22.070Z,25.04
2023-05-05T14:02:52.333Z,24.82
2023-05-05T14:05:23.503Z,24.72
2023-05-05T14:07:54.415Z,24.72
2023-05-05T14:10:29.944Z,24.67
2023-05-05T14:13:00.556Z,24.60
2023-05-05T14:15:30.873Z,24.49
2023-05-05T14:18:31.555Z,24.40
2023-05-05T14:21:01.723Z,24.48
2023-05-05T14:23:32.221Z,24.47
2023-05-05T14:26:05.125Z,24.44
2023-05-05T14:28:35.359Z,24.37
2023-05-05T14:31:05.523Z,24.29
2023-05-05T14:33:38.023Z,24.21
2023-05-05T14:36:08.846Z,24.14
2023-05-05T14:38:38.985Z,24.16
2023-05-05T14:41:11.867Z,24.33
2023-05-05T14:43:41.989Z,24.49
2023-05-05T14:46:12.312Z,24.44
2023-05-05T14:48:42.545Z,24.30
2023-05-05T14:51:12.745Z,24.14
2023-05-05T14:53:42.834Z,24.00
2023-05-05T14:56:15.517Z,24.06
2023-05-05T14:58:47.278Z,24.08
2023-05-05T15:01:18.655Z,24.07
2023-05-05T15:03:49.095Z,24.06
2023-05-05T15:06:19.425Z,23.87
2023-05-05T15:08:50.089Z,23.72
2023-05-05T15:11:24.609Z,23.65
2023-05-05T15:13:55.137Z,23.68
2023-05-05T15:16:25.291Z,23.78
2023-05-05T15:18:55.558Z,23.72
2023-05-05T15:21:25.773Z,23.69
2023-05-05T15:23:56.112Z,23.66
2023-05-05T15:26:29.184Z,23.53
2023-05-05T15:28:59.411Z,23.49
2023-05-05T15:32:34.800Z,23.49
2023-05-05T15:35:05.019Z,23.48
2023-05-05T15:37:35.198Z,23.49
2023-05-05T15:40:08.582Z,23.47
2023-05-05T15:42:44.507Z,23.46
2023-05-05T15:45:20.500Z,23.37
2023-05-05T15:47:51.006Z,23.33
2023-05-05T15:50:21.962Z,23.21
2023-05-05T15:52:52.053Z,23.24
2023-05-05T15:55:24.892Z,23.18
2023-05-05T15:58:00.031Z,23.03
2023-05-05T16:00:31.533Z,22.91
2023-05-05T16:03:01.772Z,22.86
2023-05-05T16:05:34.449Z,22.80
2023-05-05T16:08:09.711Z,22.81
2023-05-05T16:10:40.283Z,22.78
2023-05-05T16:13:21.708Z,22.66
2023-05-05T16:15:52.123Z,22.51
2023-05-05T16:18:25.034Z,22.45
2023-05-05T16:20:55.359Z,22.37
2023-05-05T16:23:25.825Z,22.31
2023-05-05T16:25:56.945Z,22.37
2023-05-05T16:28:29.843Z,22.26
2023-05-05T16:31:00.050Z,22.19
2023-05-05T16:33:30.576Z,22.14
2023-05-05T16:36:00.678Z,22.12
2023-05-05T16:38:31.282Z,21.98
2023-05-05T16:41:01.585Z,21.93
2023-05-05T16:43:34.425Z,21.94
2023-05-05T16:46:04.727Z,21.90
2023-05-05T16:48:35.174Z,21.83
2023-05-05T16:51:05.314Z,21.77
2023-05-05T16:53:35.857Z,21.74
2023-05-05T16:56:10.444Z,21.64
2023-05-05T16:58:43.927Z,21.59
2023-05-05T17:01:14.018Z,21.55
2023-05-05T17:03:44.284Z,21.49
2023-05-05T17:06:14.502Z,21.50
2023-05-05T17:08:44.606Z,21.36
2023-05-05T17:11:14.675Z,21.24
2023-05-05T17:13:50.625Z,21.10
2023-05-05T17:16:21.164Z,21.15
2023-05-05T17:18:51.318Z,21.20
2023-05-05T17:21:21.379Z,21.15
2023-05-05T17:23:51.466Z,21.03
2023-05-05T17:26:21.966Z,20.95
2023-05-05T17:28:54.686Z,20.84
2023-05-05T17:31:24.822Z,20.78
2023-05-05T17:33:54.987Z,20.73
2023-05-05T17:36:25.069Z,20.71
2023-05-05T17:38:55.190Z,20.68
2023-05-05T17:41:25.801Z,20.63
2023-05-05T17:43:59.661Z,20.63
2023-05-05T17:46:31.906Z,20.67
2023-05-05T17:49:02.984Z,20.57
2023-05-05T17:51:33.186Z,20.50
2023-05-05T17:54:03.310Z,20.42
2023-05-05T17:56:34.086Z,20.32
2023-05-05T17:59:06.813Z,20.13
2023-05-05T18:01:36.910Z,20.01
2023-05-05T18:04:27.061Z,19.95
2023-05-05T18:06:58.613Z,19.93
2023-05-05T18:09:29.931Z,19.92
2023-05-05T18:12:00.010Z,19.86
2023-05-05T18:14:50.798Z,19.74
2023-05-05T18:17:23.425Z,19.72
2023-05-05T18:19:53.550Z,19.58
2023-05-05T18:22:23.884Z,19.53
2023-05-05T18:24:59.858Z,19.53
2023-05-05T18:27:32.561Z,19.59
2023-05-05T18:30:05.388Z,19.58
2023-05-05T18:32:35.623Z,19.51
2023-05-05T18:35:06.498Z,19.42
2023-05-05T18:37:36.761Z,19.35
2023-05-05T18:40:10.166Z,19.18
2023-05-05T18:42:40.340Z,19.14
2023-05-05T18:45:16.625Z,19.14
2023-05-05T18:47:51.207Z,19.03
2023-05-05T18:50:21.579Z,19.03
2023-05-05T18:52:51.636Z,18.94
2023-05-05T18:55:24.111Z,18.89
2023-05-05T18:57:56.308Z,18.86
2023-05-05T19:00:30.969Z,18.88
2023-05-05T19:03:05.937Z,18.84
2023-05-05T19:05:45.323Z,18.81
2023-05-05T19:08:15.464Z,18.83
2023-05-05T19:10:49.447Z,18.82
2023-05-05T19:13:21.057Z,18.79
2023-05-05T19:16:05.663Z,18.75
2023-05-05T19:18:38.875Z,18.75
2023-05-05T19:21:09.030Z,18.76
2023-05-05T19:23:39.182Z,18.70
2023-05-05T19:26:10.575Z,18.73
2023-05-05T19:28:40.807Z,18.76
2023-05-05T19:31:15.415Z,18.67
2023-05-05T19:33:48.372Z,18.63
2023-05-05T19:36:19.414Z,18.57
2023-05-05T19:38:49.450Z,18.53
2023-05-05T19:41:20.150Z,18.53
2023-05-05T19:43:54.670Z,18.40
2023-05-05T19:46:33.072Z,18.33
2023-05-05T19:49:03.918Z,18.32
2023-05-05T19:51:51.165Z,18.31
2023-05-05T19:54:30.932Z,18.25
2023-05-05T19:57:01.141Z,18.12
2023-05-05T19:59:33.879Z,18.11
2023-05-05T20:02:10.867Z,18.04
2023-05-05T20:04:41.189Z,17.99
2023-05-05T20:07:11.557Z,17.96
2023-05-05T20:09:41.689Z,17.97
2023-05-05T20:12:12.350Z,17.94
2023-05-05T20:14:42.810Z,17.80
2023-05-05T20:17:18.020Z,17.76
2023-05-05T20:19:48.128Z,17.83
2023-05-05T20:22:18.155Z,17.78
2023-05-05T20:24:48.354Z,17.60
2023-05-05T20:27:19.331Z,17.53
2023-05-05T20:29:51.786Z,17.44
2023-05-05T20:32:36.087Z,17.37
2023-05-05T20:35:07.678Z,17.33
2023-05-05T20:37:38.047Z,17.29
2023-05-05T20:40:11.335Z,17.34
2023-05-05T20:42:41.673Z,17.37
2023-05-05T20:45:15.325Z,17.23
2023-05-05T20:47:53.339Z,17.23
2023-05-05T20:50:24.893Z,17.16
2023-05-05T20:52:55.045Z,17.15
2023-05-05T20:55:28.601Z,17.16
2023-05-05T20:58:02.004Z,17.16
2023-05-05T21:00:32.185Z,17.20
2023-05-05T21:03:30.076Z,17.23
2023-05-05T21:06:05.353Z,17.34
2023-05-05T21:08:39.668Z,17.26
2023-05-05T21:11:13.330Z,17.19
2023-05-05T21:13:45.545Z,17.16
2023-05-05T21:16:23.021Z,17.13
2023-05-05T21:18:59.258Z,17.07
2023-05-05T21:21:39.295Z,17.07
2023-05-05T21:24:23.525Z,17.08
2023-05-05T21:26:53.703Z,17.11
2023-05-05T21:29:25.331Z,17.15
2023-05-05T21:32:20.285Z,17.14
2023-05-05T21:35:14.942Z,17.00
2023-05-05T21:37:45.086Z,17.01
2023-05-05T21:40:16.477Z,17.07
2023-05-05T21:42:46.817Z,17.12
2023-05-05T21:45:16.989Z,17.06
2023-05-05T21:47:50.133Z,16.97
2023-05-05T21:50:22.918Z,16.92
2023-05-05T21:52:54.203Z,16.82
2023-05-05T21:55:26.616Z,16.82
2023-05-05T21:57:57.867Z,16.79
2023-05-05T22:00:28.011Z,16.75
2023-05-05T22:03:01.108Z,16.72
2023-05-05T22:05:34.048Z,16.64
2023-05-05T22:08:04.124Z,16.59
2023-05-05T22:10:34.631Z,16.60
2023-05-05T22:13:05.316Z,16.68
2023-05-05T22:15:46.023Z,16.60
2023-05-05T22:18:17.730Z,16.55
2023-05-05T22:20:51.480Z,16.55
2023-05-05T22:23:21.523Z,16.50
2023-05-05T22:25:54.888Z,16.49
2023-05-05T22:28:25.046Z,16.51
2023-05-05T22:30:55.199Z,16.48
2023-05-05T22:33:25.732Z,16.47
2023-05-05T22:35:58.548Z,16.38
2023-05-05T22:38:29.030Z,16.36
2023-05-05T22:40:59.425Z,16.31
2023-05-05T22:43:30.035Z,16.16
2023-05-05T22:46:00.111Z,16.16
2023-05-05T22:48:30.180Z,16.11
2023-05-05T22:51:03.918Z,16.10
2023-05-05T22:53:33.977Z,16.18
2023-05-05T22:56:04.891Z,16.22
2023-05-05T22:58:38.235Z,16.23
2023-05-05T23:01:08.377Z,16.29
2023-05-05T23:03:38.448Z,16.38
2023-05-05T23:06:13.269Z,16.40
2023-05-05T23:08:43.647Z,16.40
2023-05-05T23:11:13.944Z,16.45
2023-05-05T23:13:44.041Z,16.43
2023-05-05T23:16:14.382Z,16.38
2023-05-05T23:18:44.559Z,16.32
2023-05-05T23:21:17.599Z,16.33
2023-05-05T23:23:48.635Z,16.36
2023-05-05T23:26:18.649Z,16.33
2023-05-05T23:28:49.089Z,16.30
2023-05-05T23:31:19.304Z,16.26
2023-05-05T23:33:49.374Z,16.21
2023-05-05T23:36:22.214Z,16.12
2023-05-05T23:38:52.411Z,16.13
2023-05-05T23:41:22.446Z,16.12
2023-05-05T23:43:52.524Z,16.11
2023-05-05T23:46:22.696Z,16.10
2023-05-05T23:48:53.439Z,16.09
2023-05-05T23:51:27.398Z,16.08
2023-05-05T23:53:59.801Z,16.01
2023-05-05T23:56:29.802Z,15.93
2023-05-05T23:58:59.795Z,15.86
